sensor_id;sensor_type;location;lat;lon;timestamp;P1;durP1;ratioP1;P2;durP2;ratioP2
46563;SDS011;32291;52.010;4.446;2022-07-03T00:00:48;3.67;;;2.53;;
46563;SDS011;32291;52.010;4.446;2022-07-03T00:01:50;2.67;;;2.47;;
46563;SDS011;32291;52.010;4.446;2022-07-03T00:02:52;3.85;;;2.40;;
46563;SDS011;32291;52.010;4.446;2022-07-03T00:03:54;2.75;;;2.20;;
46563;SDS011;32291;52.010;4.446;2022-07-03T00:04:56;3.17;;;2.55;;
46563;SDS011;32291;52.010;4.446;2022-07-03T00:05:58;2.85;;;2.65;;
46563;SDS011;32291;52.010;4.446;2022-07-03T00:07:00;3.55;;;2.40;;
46563;SDS011;32291;52.010;4.446;2022-07-03T00:08:03;2.58;;;2.38;;
46563;SDS011;32291;52.010;4.446;2022-07-03T00:09:05;3.20;;;2.53;;
46563;SDS011;32291;52.010;4.446;2022-07-03T00:10:08;4.10;;;2.50;;
46563;SDS011;32291;52.010;4.446;2022-07-03T00:11:10;3.25;;;2.95;;
46563;SDS011;32291;52.010;4.446;2022-07-03T00:12:12;3.42;;;2.63;;
46563;SDS011;32291;52.010;4.446;2022-07-03T00:13:14;3.92;;;2.40;;
46563;SDS011;32291;52.010;4.446;2022-07-03T00:14:16;3.15;;;2.25;;
46563;SDS011;32291;52.010;4.446;2022-07-03T00:15:19;4.03;;;2.65;;
46563;SDS011;32291;52.010;4.446;2022-07-03T00:16:20;3.35;;;2.60;;
46563;SDS011;32291;52.010;4.446;2022-07-03T00:17:22;3.00;;;2.35;;
46563;SDS011;32291;52.010;4.446;2022-07-03T00:18:24;3.50;;;2.30;;
46563;SDS011;32291;52.010;4.446;2022-07-03T00:19:27;2.05;;;1.95;;
46563;SDS011;32291;52.010;4.446;2022-07-03T00:20:30;4.68;;;2.40;;
46563;SDS011;32291;52.010;4.446;2022-07-03T00:21:55;3.35;;;2.30;;
46563;SDS011;32291;52.010;4.446;2022-07-03T00:23:04;2.75;;;2.00;;
46563;SDS011;32291;52.010;4.446;2022-07-03T00:24:17;2.83;;;1.92;;
46563;SDS011;32291;52.010;4.446;2022-07-03T00:25:30;3.75;;;2.78;;
46563;SDS011;32291;52.010;4.446;2022-07-03T00:26:36;3.13;;;2.22;;
46563;SDS011;32291;52.010;4.446;2022-07-03T00:27:44;2.63;;;2.00;;
46563;SDS011;32291;52.010;4.446;2022-07-03T00:28:50;3.38;;;2.08;;
46563;SDS011;32291;52.010;4.446;2022-07-03T00:29:57;2.63;;;1.98;;
46563;SDS011;32291;52.010;4.446;2022-07-03T00:31:04;2.72;;;1.90;;
46563;SDS011;32291;52.010;4.446;2022-07-03T00:32:09;2.30;;;1.80;;
46563;SDS011;32291;52.010;4.446;2022-07-03T00:33:22;2.53;;;1.98;;
46563;SDS011;32291;52.010;4.446;2022-07-03T00:34:29;2.95;;;1.80;;
46563;SDS011;32291;52.010;4.446;2022-07-03T00:35:32;2.08;;;1.65;;
46563;SDS011;32291;52.010;4.446;2022-07-03T00:36:38;2.15;;;1.80;;
46563;SDS011;32291;52.010;4.446;2022-07-03T00:37:41;3.35;;;2.03;;
46563;SDS011;32291;52.010;4.446;2022-07-03T00:38:44;3.30;;;1.48;;
46563;SDS011;32291;52.010;4.446;2022-07-03T00:39:46;1.85;;;1.60;;
46563;SDS011;32291;52.010;4.446;2022-07-03T00:40:52;2.53;;;1.58;;
46563;SDS011;32291;52.010;4.446;2022-07-03T00:42:01;1.48;;;1.38;;
46563;SDS011;32291;52.010;4.446;2022-07-03T00:43:06;4.22;;;1.67;;
46563;SDS011;32291;52.010;4.446;2022-07-03T00:44:11;2.50;;;1.80;;
46563;SDS011;32291;52.010;4.446;2022-07-03T00:45:13;2.95;;;1.58;;
46563;SDS011;32291;52.010;4.446;2022-07-03T00:46:22;1.75;;;1.38;;
46563;SDS011;32291;52.010;4.446;2022-07-03T00:47:26;3.08;;;1.70;;
46563;SDS011;32291;52.010;4.446;2022-07-03T00:48:28;4.20;;;1.58;;
46563;SDS011;32291;52.010;4.446;2022-07-03T00:49:40;4.28;;;1.83;;
46563;SDS011;32291;52.010;4.446;2022-07-03T00:50:51;3.05;;;1.40;;
46563;SDS011;32291;52.010;4.446;2022-07-03T00:51:53;1.80;;;1.30;;
46563;SDS011;32291;52.010;4.446;2022-07-03T00:52:59;2.63;;;1.30;;
46563;SDS011;32291;52.010;4.446;2022-07-03T00:54:03;2.10;;;1.42;;
46563;SDS011;32291;52.010;4.446;2022-07-03T00:55:15;2.95;;;1.52;;
46563;SDS011;32291;52.010;4.446;2022-07-03T00:56:25;2.90;;;1.60;;
46563;SDS011;32291;52.010;4.446;2022-07-03T00:57:30;1.67;;;1.38;;
46563;SDS011;32291;52.010;4.446;2022-07-03T00:58:32;3.10;;;1.45;;
46563;SDS011;32291;52.010;4.446;2022-07-03T00:59:35;2.95;;;1.30;;
46563;SDS011;32291;52.010;4.446;2022-07-03T01:00:39;1.90;;;1.23;;
46563;SDS011;32291;52.010;4.446;2022-07-03T01:01:42;2.13;;;1.20;;
46563;SDS011;32291;52.010;4.446;2022-07-03T01:03:07;2.42;;;1.05;;
46563;SDS011;32291;52.010;4.446;2022-07-03T01:04:33;2.22;;;1.23;;
46563;SDS011;32291;52.010;4.446;2022-07-03T01:05:57;1.77;;;0.98;;
46563;SDS011;32291;52.010;4.446;2022-07-03T01:09:13;1.52;;;1.10;;
46563;SDS011;32291;52.010;4.446;2022-07-03T01:12:02;4.13;;;1.13;;
46563;SDS011;32291;52.010;4.446;2022-07-03T01:15:15;2.80;;;1.15;;
46563;SDS011;32291;52.010;4.446;2022-07-03T01:16:57;2.45;;;1.10;;
46563;SDS011;32291;52.010;4.446;2022-07-03T01:19:40;4.07;;;1.20;;
46563;SDS011;32291;52.010;4.446;2022-07-03T01:20:46;1.65;;;1.15;;
46563;SDS011;32291;52.010;4.446;2022-07-03T01:23:46;2.60;;;1.08;;
46563;SDS011;32291;52.010;4.446;2022-07-03T01:26:51;2.97;;;1.67;;
46563;SDS011;32291;52.010;4.446;2022-07-03T01:28:11;3.22;;;1.20;;
46563;SDS011;32291;52.010;4.446;2022-07-03T01:29:25;4.07;;;1.15;;
46563;SDS011;32291;52.010;4.446;2022-07-03T01:30:51;1.83;;;0.93;;
46563;SDS011;32291;52.010;4.446;2022-07-03T01:31:55;2.03;;;1.20;;
46563;SDS011;32291;52.010;4.446;2022-07-03T01:33:02;2.42;;;1.17;;
46563;SDS011;32291;52.010;4.446;2022-07-03T01:34:18;3.53;;;1.27;;
46563;SDS011;32291;52.010;4.446;2022-07-03T01:35:27;1.63;;;0.80;;
46563;SDS011;32291;52.010;4.446;2022-07-03T01:36:38;1.35;;;0.85;;
46563;SDS011;32291;52.010;4.446;2022-07-03T01:37:44;2.83;;;1.15;;
46563;SDS011;32291;52.010;4.446;2022-07-03T01:38:51;1.92;;;1.00;;
46563;SDS011;32291;52.010;4.446;2022-07-03T01:39:57;1.95;;;0.95;;
46563;SDS011;32291;52.010;4.446;2022-07-03T01:41:00;4.30;;;1.38;;
46563;SDS011;32291;52.010;4.446;2022-07-03T01:42:06;2.70;;;1.15;;
46563;SDS011;32291;52.010;4.446;2022-07-03T01:43:12;2.50;;;1.30;;
46563;SDS011;32291;52.010;4.446;2022-07-03T01:44:14;1.65;;;1.10;;
46563;SDS011;32291;52.010;4.446;2022-07-03T01:45:19;1.75;;;0.85;;
46563;SDS011;32291;52.010;4.446;2022-07-03T01:46:29;1.50;;;1.00;;
46563;SDS011;32291;52.010;4.446;2022-07-03T01:47:34;3.10;;;1.00;;
46563;SDS011;32291;52.010;4.446;2022-07-03T01:48:42;1.52;;;0.88;;
46563;SDS011;32291;52.010;4.446;2022-07-03T01:49:46;4.28;;;0.88;;
46563;SDS011;32291;52.010;4.446;2022-07-03T01:50:51;3.78;;;1.00;;
46563;SDS011;32291;52.010;4.446;2022-07-03T01:51:56;1.77;;;1.08;;
46563;SDS011;32291;52.010;4.446;2022-07-03T01:53:03;2.75;;;1.00;;
46563;SDS011;32291;52.010;4.446;2022-07-03T01:54:11;1.63;;;0.90;;
46563;SDS011;32291;52.010;4.446;2022-07-03T01:55:14;3.38;;;1.15;;
46563;SDS011;32291;52.010;4.446;2022-07-03T01:56:21;1.15;;;0.73;;
46563;SDS011;32291;52.010;4.446;2022-07-03T01:57:24;0.98;;;0.82;;
46563;SDS011;32291;52.010;4.446;2022-07-03T01:58:43;2.58;;;0.85;;
46563;SDS011;32291;52.010;4.446;2022-07-03T01:59:46;3.35;;;0.90;;
46563;SDS011;32291;52.010;4.446;2022-07-03T02:02:17;2.97;;;1.00;;
46563;SDS011;32291;52.010;4.446;2022-07-03T02:03:34;1.60;;;0.80;;
46563;SDS011;32291;52.010;4.446;2022-07-03T02:04:52;1.88;;;0.95;;
46563;SDS011;32291;52.010;4.446;2022-07-03T02:06:09;2.35;;;0.90;;
46563;SDS011;32291;52.010;4.446;2022-07-03T02:08:02;2.50;;;1.20;;
46563;SDS011;32291;52.010;4.446;2022-07-03T02:09:48;2.97;;;1.20;;
46563;SDS011;32291;52.010;4.446;2022-07-03T02:11:14;4.55;;;1.00;;
46563;SDS011;32291;52.010;4.446;2022-07-03T02:12:26;2.20;;;1.10;;
46563;SDS011;32291;52.010;4.446;2022-07-03T02:15:36;4.78;;;1.25;;
46563;SDS011;32291;52.010;4.446;2022-07-03T02:16:50;2.30;;;0.80;;
46563;SDS011;32291;52.010;4.446;2022-07-03T02:18:08;3.25;;;0.77;;
46563;SDS011;32291;52.010;4.446;2022-07-03T02:19:32;2.17;;;0.90;;
46563;SDS011;32291;52.010;4.446;2022-07-03T02:21:05;4.32;;;1.05;;
46563;SDS011;32291;52.010;4.446;2022-07-03T02:22:17;5.03;;;1.00;;
46563;SDS011;32291;52.010;4.446;2022-07-03T02:23:27;2.22;;;0.93;;
46563;SDS011;32291;52.010;4.446;2022-07-03T02:24:44;3.30;;;1.20;;
46563;SDS011;32291;52.010;4.446;2022-07-03T02:25:48;2.78;;;1.10;;
46563;SDS011;32291;52.010;4.446;2022-07-03T02:26:58;1.20;;;0.80;;
46563;SDS011;32291;52.010;4.446;2022-07-03T02:28:06;3.70;;;1.13;;
46563;SDS011;32291;52.010;4.446;2022-07-03T02:29:46;2.97;;;0.90;;
46563;SDS011;32291;52.010;4.446;2022-07-03T02:31:04;5.32;;;1.17;;
46563;SDS011;32291;52.010;4.446;2022-07-03T02:32:14;2.80;;;1.00;;
46563;SDS011;32291;52.010;4.446;2022-07-03T02:33:24;3.35;;;1.20;;
46563;SDS011;32291;52.010;4.446;2022-07-03T02:34:31;4.55;;;0.93;;
46563;SDS011;32291;52.010;4.446;2022-07-03T02:35:36;5.85;;;1.33;;
46563;SDS011;32291;52.010;4.446;2022-07-03T02:36:38;3.22;;;0.82;;
46563;SDS011;32291;52.010;4.446;2022-07-03T02:37:53;1.33;;;1.05;;
46563;SDS011;32291;52.010;4.446;2022-07-03T02:39:04;3.95;;;1.23;;
46563;SDS011;32291;52.010;4.446;2022-07-03T02:40:54;3.20;;;0.85;;
46563;SDS011;32291;52.010;4.446;2022-07-03T02:42:25;3.63;;;1.10;;
46563;SDS011;32291;52.010;4.446;2022-07-03T02:43:51;2.00;;;1.05;;
46563;SDS011;32291;52.010;4.446;2022-07-03T02:45:03;3.80;;;1.20;;
46563;SDS011;32291;52.010;4.446;2022-07-03T02:46:12;2.42;;;1.38;;
46563;SDS011;32291;52.010;4.446;2022-07-03T02:48:05;3.00;;;1.30;;
46563;SDS011;32291;52.010;4.446;2022-07-03T02:51:22;3.60;;;1.50;;
46563;SDS011;32291;52.010;4.446;2022-07-03T02:53:44;1.98;;;0.90;;
46563;SDS011;32291;52.010;4.446;2022-07-03T03:00:03;3.13;;;1.02;;
46563;SDS011;32291;52.010;4.446;2022-07-03T03:01:29;3.30;;;1.00;;
46563;SDS011;32291;52.010;4.446;2022-07-03T03:06:42;4.38;;;1.00;;
46563;SDS011;32291;52.010;4.446;2022-07-03T03:08:08;2.13;;;1.00;;
46563;SDS011;32291;52.010;4.446;2022-07-03T03:09:40;2.67;;;1.05;;
46563;SDS011;32291;52.010;4.446;2022-07-03T03:10:48;3.20;;;1.13;;
46563;SDS011;32291;52.010;4.446;2022-07-03T03:11:55;4.03;;;1.50;;
46563;SDS011;32291;52.010;4.446;2022-07-03T03:13:04;4.30;;;1.08;;
46563;SDS011;32291;52.010;4.446;2022-07-03T03:14:11;2.05;;;1.05;;
46563;SDS011;32291;52.010;4.446;2022-07-03T03:15:19;2.85;;;0.90;;
46563;SDS011;32291;52.010;4.446;2022-07-03T03:16:30;4.05;;;1.00;;
46563;SDS011;32291;52.010;4.446;2022-07-03T03:17:51;3.88;;;1.23;;
46563;SDS011;32291;52.010;4.446;2022-07-03T03:19:03;2.60;;;1.00;;
46563;SDS011;32291;52.010;4.446;2022-07-03T03:20:05;5.03;;;1.48;;
46563;SDS011;32291;52.010;4.446;2022-07-03T03:21:10;3.03;;;1.20;;
46563;SDS011;32291;52.010;4.446;2022-07-03T03:23:57;1.83;;;0.95;;
46563;SDS011;32291;52.010;4.446;2022-07-03T03:25:02;2.85;;;1.10;;
46563;SDS011;32291;52.010;4.446;2022-07-03T03:26:05;2.80;;;1.15;;
46563;SDS011;32291;52.010;4.446;2022-07-03T03:27:07;4.03;;;1.30;;
46563;SDS011;32291;52.010;4.446;2022-07-03T03:28:09;7.57;;;2.05;;
46563;SDS011;32291;52.010;4.446;2022-07-03T03:29:12;4.15;;;1.20;;
46563;SDS011;32291;52.010;4.446;2022-07-03T03:30:14;4.95;;;1.20;;
46563;SDS011;32291;52.010;4.446;2022-07-03T03:31:17;3.90;;;1.50;;
46563;SDS011;32291;52.010;4.446;2022-07-03T03:32:21;5.43;;;1.20;;
46563;SDS011;32291;52.010;4.446;2022-07-03T03:33:26;2.85;;;1.10;;
46563;SDS011;32291;52.010;4.446;2022-07-03T03:34:28;3.97;;;1.55;;
46563;SDS011;32291;52.010;4.446;2022-07-03T03:35:34;3.30;;;0.98;;
46563;SDS011;32291;52.010;4.446;2022-07-03T03:36:39;3.65;;;1.20;;
46563;SDS011;32291;52.010;4.446;2022-07-03T03:37:41;2.45;;;1.15;;
46563;SDS011;32291;52.010;4.446;2022-07-03T03:38:46;3.30;;;1.20;;
46563;SDS011;32291;52.010;4.446;2022-07-03T03:39:49;3.83;;;1.30;;
46563;SDS011;32291;52.010;4.446;2022-07-03T03:40:51;4.05;;;1.52;;
46563;SDS011;32291;52.010;4.446;2022-07-03T03:41:54;1.58;;;1.02;;
46563;SDS011;32291;52.010;4.446;2022-07-03T03:42:57;7.35;;;1.30;;
46563;SDS011;32291;52.010;4.446;2022-07-03T03:44:00;4.70;;;1.13;;
46563;SDS011;32291;52.010;4.446;2022-07-03T03:45:02;4.85;;;1.55;;
46563;SDS011;32291;52.010;4.446;2022-07-03T03:46:05;3.88;;;1.58;;
46563;SDS011;32291;52.010;4.446;2022-07-03T03:47:06;3.65;;;1.40;;
46563;SDS011;32291;52.010;4.446;2022-07-03T03:48:08;2.60;;;1.13;;
46563;SDS011;32291;52.010;4.446;2022-07-03T03:49:11;2.97;;;1.20;;
46563;SDS011;32291;52.010;4.446;2022-07-03T03:50:13;4.70;;;1.60;;
46563;SDS011;32291;52.010;4.446;2022-07-03T03:51:15;6.95;;;1.70;;
46563;SDS011;32291;52.010;4.446;2022-07-03T03:52:17;3.28;;;1.80;;
46563;SDS011;32291;52.010;4.446;2022-07-03T03:53:19;5.22;;;1.38;;
46563;SDS011;32291;52.010;4.446;2022-07-03T03:54:21;7.97;;;1.45;;
46563;SDS011;32291;52.010;4.446;2022-07-03T03:55:23;4.55;;;2.47;;
46563;SDS011;32291;52.010;4.446;2022-07-03T03:56:26;6.00;;;1.50;;
46563;SDS011;32291;52.010;4.446;2022-07-03T03:57:29;3.08;;;1.42;;
46563;SDS011;32291;52.010;4.446;2022-07-03T03:58:31;4.03;;;1.63;;
46563;SDS011;32291;52.010;4.446;2022-07-03T03:59:36;6.13;;;1.88;;
46563;SDS011;32291;52.010;4.446;2022-07-03T04:00:38;3.85;;;1.55;;
46563;SDS011;32291;52.010;4.446;2022-07-03T04:01:40;5.45;;;1.90;;
46563;SDS011;32291;52.010;4.446;2022-07-03T04:02:42;4.97;;;1.58;;
46563;SDS011;32291;52.010;4.446;2022-07-03T04:03:44;5.72;;;1.50;;
46563;SDS011;32291;52.010;4.446;2022-07-03T04:04:47;4.53;;;1.30;;
46563;SDS011;32291;52.010;4.446;2022-07-03T04:05:49;3.03;;;1.58;;
46563;SDS011;32291;52.010;4.446;2022-07-03T04:06:51;5.20;;;1.70;;
46563;SDS011;32291;52.010;4.446;2022-07-03T04:07:52;4.32;;;1.67;;
46563;SDS011;32291;52.010;4.446;2022-07-03T04:08:54;5.15;;;1.25;;
46563;SDS011;32291;52.010;4.446;2022-07-03T04:09:56;2.58;;;1.33;;
46563;SDS011;32291;52.010;4.446;2022-07-03T04:10:58;2.47;;;1.23;;
46563;SDS011;32291;52.010;4.446;2022-07-03T04:12:01;5.03;;;1.58;;
46563;SDS011;32291;52.010;4.446;2022-07-03T04:13:04;4.20;;;1.40;;
46563;SDS011;32291;52.010;4.446;2022-07-03T04:14:05;3.72;;;1.67;;
46563;SDS011;32291;52.010;4.446;2022-07-03T04:15:07;5.00;;;1.40;;
46563;SDS011;32291;52.010;4.446;2022-07-03T04:16:10;5.72;;;1.90;;
46563;SDS011;32291;52.010;4.446;2022-07-03T04:17:13;4.22;;;1.40;;
46563;SDS011;32291;52.010;4.446;2022-07-03T04:18:16;4.72;;;1.65;;
46563;SDS011;32291;52.010;4.446;2022-07-03T04:19:19;5.97;;;1.80;;
46563;SDS011;32291;52.010;4.446;2022-07-03T04:20:23;3.13;;;1.50;;
46563;SDS011;32291;52.010;4.446;2022-07-03T04:21:25;3.30;;;1.55;;
46563;SDS011;32291;52.010;4.446;2022-07-03T04:22:27;5.15;;;1.80;;
46563;SDS011;32291;52.010;4.446;2022-07-03T04:23:29;4.25;;;1.60;;
46563;SDS011;32291;52.010;4.446;2022-07-03T04:24:31;6.03;;;1.73;;
46563;SDS011;32291;52.010;4.446;2022-07-03T04:25:33;3.78;;;1.60;;
46563;SDS011;32291;52.010;4.446;2022-07-03T04:26:35;6.38;;;2.10;;
46563;SDS011;32291;52.010;4.446;2022-07-03T04:27:37;5.75;;;1.85;;
46563;SDS011;32291;52.010;4.446;2022-07-03T04:28:39;4.45;;;1.73;;
46563;SDS011;32291;52.010;4.446;2022-07-03T04:29:45;3.80;;;1.92;;
46563;SDS011;32291;52.010;4.446;2022-07-03T04:30:47;2.65;;;1.80;;
46563;SDS011;32291;52.010;4.446;2022-07-03T04:31:50;4.25;;;1.95;;
46563;SDS011;32291;52.010;4.446;2022-07-03T04:32:52;5.03;;;1.88;;
46563;SDS011;32291;52.010;4.446;2022-07-03T04:33:54;3.70;;;1.52;;
46563;SDS011;32291;52.010;4.446;2022-07-03T04:34:56;4.85;;;1.98;;
46563;SDS011;32291;52.010;4.446;2022-07-03T04:35:57;4.53;;;1.85;;
46563;SDS011;32291;52.010;4.446;2022-07-03T04:36:59;4.70;;;2.17;;
46563;SDS011;32291;52.010;4.446;2022-07-03T04:38:02;5.97;;;1.92;;
46563;SDS011;32291;52.010;4.446;2022-07-03T04:39:03;7.07;;;2.50;;
46563;SDS011;32291;52.010;4.446;2022-07-03T04:40:05;5.32;;;1.80;;
46563;SDS011;32291;52.010;4.446;2022-07-03T04:41:10;6.45;;;1.92;;
46563;SDS011;32291;52.010;4.446;2022-07-03T04:42:12;3.25;;;1.77;;
46563;SDS011;32291;52.010;4.446;2022-07-03T04:43:14;3.50;;;1.58;;
46563;SDS011;32291;52.010;4.446;2022-07-03T04:44:19;4.30;;;1.83;;
46563;SDS011;32291;52.010;4.446;2022-07-03T04:45:21;8.50;;;1.85;;
46563;SDS011;32291;52.010;4.446;2022-07-03T04:46:23;4.63;;;1.90;;
46563;SDS011;32291;52.010;4.446;2022-07-03T04:47:25;3.40;;;1.90;;
46563;SDS011;32291;52.010;4.446;2022-07-03T04:48:27;3.88;;;1.67;;
46563;SDS011;32291;52.010;4.446;2022-07-03T04:49:33;7.97;;;1.88;;
46563;SDS011;32291;52.010;4.446;2022-07-03T04:50:35;4.88;;;1.70;;
46563;SDS011;32291;52.010;4.446;2022-07-03T04:51:37;4.35;;;2.17;;
46563;SDS011;32291;52.010;4.446;2022-07-03T04:52:38;4.20;;;1.75;;
46563;SDS011;32291;52.010;4.446;2022-07-03T04:53:40;5.43;;;1.95;;
46563;SDS011;32291;52.010;4.446;2022-07-03T04:54:42;3.20;;;2.05;;
46563;SDS011;32291;52.010;4.446;2022-07-03T04:55:44;3.20;;;1.73;;
46563;SDS011;32291;52.010;4.446;2022-07-03T04:56:46;5.90;;;1.80;;
46563;SDS011;32291;52.010;4.446;2022-07-03T04:57:49;5.57;;;2.05;;
46563;SDS011;32291;52.010;4.446;2022-07-03T04:58:51;3.67;;;2.05;;
46563;SDS011;32291;52.010;4.446;2022-07-03T04:59:53;4.78;;;1.77;;
46563;SDS011;32291;52.010;4.446;2022-07-03T05:00:55;4.50;;;2.03;;
46563;SDS011;32291;52.010;4.446;2022-07-03T05:01:57;4.18;;;1.90;;
46563;SDS011;32291;52.010;4.446;2022-07-03T05:02:59;3.58;;;1.92;;
46563;SDS011;32291;52.010;4.446;2022-07-03T05:04:02;3.88;;;1.80;;
46563;SDS011;32291;52.010;4.446;2022-07-03T05:05:05;2.42;;;1.67;;
46563;SDS011;32291;52.010;4.446;2022-07-03T05:06:08;2.72;;;1.90;;
46563;SDS011;32291;52.010;4.446;2022-07-03T05:07:10;3.63;;;1.70;;
46563;SDS011;32291;52.010;4.446;2022-07-03T05:08:12;4.15;;;1.92;;
46563;SDS011;32291;52.010;4.446;2022-07-03T05:09:15;8.50;;;2.60;;
46563;SDS011;32291;52.010;4.446;2022-07-03T05:10:17;6.75;;;2.00;;
46563;SDS011;32291;52.010;4.446;2022-07-03T05:11:19;5.05;;;2.08;;
46563;SDS011;32291;52.010;4.446;2022-07-03T05:12:21;6.15;;;2.17;;
46563;SDS011;32291;52.010;4.446;2022-07-03T05:13:23;3.08;;;2.03;;
46563;SDS011;32291;52.010;4.446;2022-07-03T05:14:25;5.05;;;2.25;;
46563;SDS011;32291;52.010;4.446;2022-07-03T05:15:27;5.45;;;1.90;;
46563;SDS011;32291;52.010;4.446;2022-07-03T05:16:29;4.30;;;2.00;;
46563;SDS011;32291;52.010;4.446;2022-07-03T05:17:33;4.93;;;2.50;;
46563;SDS011;32291;52.010;4.446;2022-07-03T05:18:35;4.55;;;2.78;;
46563;SDS011;32291;52.010;4.446;2022-07-03T05:19:37;5.22;;;2.80;;
46563;SDS011;32291;52.010;4.446;2022-07-03T05:20:39;6.13;;;2.30;;
46563;SDS011;32291;52.010;4.446;2022-07-03T05:21:41;5.07;;;2.30;;
46563;SDS011;32291;52.010;4.446;2022-07-03T05:22:43;6.68;;;2.55;;
46563;SDS011;32291;52.010;4.446;2022-07-03T05:23:45;5.05;;;2.40;;
46563;SDS011;32291;52.010;4.446;2022-07-03T05:24:47;4.30;;;2.42;;
46563;SDS011;32291;52.010;4.446;2022-07-03T05:25:49;8.35;;;2.28;;
46563;SDS011;32291;52.010;4.446;2022-07-03T05:26:51;9.10;;;2.38;;
46563;SDS011;32291;52.010;4.446;2022-07-03T05:27:53;5.45;;;1.80;;
46563;SDS011;32291;52.010;4.446;2022-07-03T05:28:56;4.00;;;2.10;;
46563;SDS011;32291;52.010;4.446;2022-07-03T05:29:58;6.15;;;2.13;;
46563;SDS011;32291;52.010;4.446;2022-07-03T05:31:00;6.63;;;2.33;;
46563;SDS011;32291;52.010;4.446;2022-07-03T05:32:02;4.00;;;2.58;;
46563;SDS011;32291;52.010;4.446;2022-07-03T05:33:04;4.50;;;2.25;;
46563;SDS011;32291;52.010;4.446;2022-07-03T05:34:06;5.88;;;2.70;;
46563;SDS011;32291;52.010;4.446;2022-07-03T05:35:09;3.33;;;2.28;;
46563;SDS011;32291;52.010;4.446;2022-07-03T05:36:14;5.55;;;2.25;;
46563;SDS011;32291;52.010;4.446;2022-07-03T05:37:16;3.58;;;2.22;;
46563;SDS011;32291;52.010;4.446;2022-07-03T05:38:17;4.43;;;2.30;;
46563;SDS011;32291;52.010;4.446;2022-07-03T05:39:40;7.57;;;2.83;;
46563;SDS011;32291;52.010;4.446;2022-07-03T05:40:42;7.65;;;2.00;;
46563;SDS011;32291;52.010;4.446;2022-07-03T05:41:45;7.07;;;2.35;;
46563;SDS011;32291;52.010;4.446;2022-07-03T05:42:46;4.40;;;2.10;;
46563;SDS011;32291;52.010;4.446;2022-07-03T05:43:48;5.25;;;2.33;;
46563;SDS011;32291;52.010;4.446;2022-07-03T05:44:50;4.20;;;2.90;;
46563;SDS011;32291;52.010;4.446;2022-07-03T05:45:52;7.95;;;2.65;;
46563;SDS011;32291;52.010;4.446;2022-07-03T05:46:54;7.28;;;3.03;;
46563;SDS011;32291;52.010;4.446;2022-07-03T05:47:57;5.75;;;2.70;;
46563;SDS011;32291;52.010;4.446;2022-07-03T05:48:58;5.95;;;2.95;;
46563;SDS011;32291;52.010;4.446;2022-07-03T05:50:00;7.20;;;3.00;;
46563;SDS011;32291;52.010;4.446;2022-07-03T05:51:02;4.45;;;2.53;;
46563;SDS011;32291;52.010;4.446;2022-07-03T05:52:05;6.72;;;2.97;;
46563;SDS011;32291;52.010;4.446;2022-07-03T05:53:07;6.63;;;2.67;;
46563;SDS011;32291;52.010;4.446;2022-07-03T05:54:09;6.97;;;2.95;;
46563;SDS011;32291;52.010;4.446;2022-07-03T05:55:11;5.63;;;2.92;;
46563;SDS011;32291;52.010;4.446;2022-07-03T05:56:13;6.43;;;3.17;;
46563;SDS011;32291;52.010;4.446;2022-07-03T05:57:15;6.53;;;3.10;;
46563;SDS011;32291;52.010;4.446;2022-07-03T05:58:17;6.07;;;3.20;;
46563;SDS011;32291;52.010;4.446;2022-07-03T05:59:19;7.00;;;3.40;;
46563;SDS011;32291;52.010;4.446;2022-07-03T06:00:21;6.80;;;3.58;;
46563;SDS011;32291;52.010;4.446;2022-07-03T06:01:23;6.53;;;3.38;;
46563;SDS011;32291;52.010;4.446;2022-07-03T06:02:25;7.20;;;3.58;;
46563;SDS011;32291;52.010;4.446;2022-07-03T06:03:27;6.25;;;3.10;;
46563;SDS011;32291;52.010;4.446;2022-07-03T06:04:30;5.60;;;2.80;;
46563;SDS011;32291;52.010;4.446;2022-07-03T06:05:32;10.43;;;3.08;;
46563;SDS011;32291;52.010;4.446;2022-07-03T06:06:35;8.95;;;2.70;;
46563;SDS011;32291;52.010;4.446;2022-07-03T06:07:37;10.60;;;3.35;;
46563;SDS011;32291;52.010;4.446;2022-07-03T06:08:39;4.97;;;3.33;;
46563;SDS011;32291;52.010;4.446;2022-07-03T06:09:41;5.97;;;3.20;;
46563;SDS011;32291;52.010;4.446;2022-07-03T06:10:45;6.63;;;3.40;;
46563;SDS011;32291;52.010;4.446;2022-07-03T06:11:47;5.53;;;2.78;;
46563;SDS011;32291;52.010;4.446;2022-07-03T06:12:48;6.35;;;2.95;;
46563;SDS011;32291;52.010;4.446;2022-07-03T06:13:50;8.85;;;3.25;;
46563;SDS011;32291;52.010;4.446;2022-07-03T06:14:52;7.55;;;2.65;;
46563;SDS011;32291;52.010;4.446;2022-07-03T06:15:54;5.93;;;2.65;;
46563;SDS011;32291;52.010;4.446;2022-07-03T06:16:56;7.90;;;2.88;;
46563;SDS011;32291;52.010;4.446;2022-07-03T06:17:58;7.97;;;2.78;;
46563;SDS011;32291;52.010;4.446;2022-07-03T06:19:00;7.05;;;2.70;;
46563;SDS011;32291;52.010;4.446;2022-07-03T06:20:03;6.82;;;3.13;;
46563;SDS011;32291;52.010;4.446;2022-07-03T06:21:07;4.63;;;2.70;;
46563;SDS011;32291;52.010;4.446;2022-07-03T06:22:09;5.65;;;2.63;;
46563;SDS011;32291;52.010;4.446;2022-07-03T06:23:11;7.25;;;2.83;;
46563;SDS011;32291;52.010;4.446;2022-07-03T06:24:13;4.38;;;2.42;;
46563;SDS011;32291;52.010;4.446;2022-07-03T06:25:15;7.80;;;2.38;;
46563;SDS011;32291;52.010;4.446;2022-07-03T06:26:17;5.38;;;2.45;;
46563;SDS011;32291;52.010;4.446;2022-07-03T06:27:19;7.60;;;2.80;;
46563;SDS011;32291;52.010;4.446;2022-07-03T06:28:22;6.00;;;3.10;;
46563;SDS011;32291;52.010;4.446;2022-07-03T06:29:23;5.07;;;2.90;;
46563;SDS011;32291;52.010;4.446;2022-07-03T06:30:26;9.27;;;4.00;;
46563;SDS011;32291;52.010;4.446;2022-07-03T06:31:28;5.43;;;2.67;;
46563;SDS011;32291;52.010;4.446;2022-07-03T06:32:29;5.20;;;2.78;;
46563;SDS011;32291;52.010;4.446;2022-07-03T06:33:32;4.85;;;2.60;;
46563;SDS011;32291;52.010;4.446;2022-07-03T06:34:34;6.40;;;2.63;;
46563;SDS011;32291;52.010;4.446;2022-07-03T06:35:36;7.68;;;3.03;;
46563;SDS011;32291;52.010;4.446;2022-07-03T06:36:37;4.50;;;2.63;;
46563;SDS011;32291;52.010;4.446;2022-07-03T06:37:39;6.40;;;2.78;;
46563;SDS011;32291;52.010;4.446;2022-07-03T06:38:41;7.90;;;2.42;;
46563;SDS011;32291;52.010;4.446;2022-07-03T06:39:44;7.70;;;2.60;;
46563;SDS011;32291;52.010;4.446;2022-07-03T06:40:46;4.00;;;2.17;;
46563;SDS011;32291;52.010;4.446;2022-07-03T06:41:48;8.07;;;2.65;;
46563;SDS011;32291;52.010;4.446;2022-07-03T06:42:50;6.53;;;2.60;;
46563;SDS011;32291;52.010;4.446;2022-07-03T06:43:52;5.95;;;2.30;;
46563;SDS011;32291;52.010;4.446;2022-07-03T06:44:54;5.00;;;2.13;;
46563;SDS011;32291;52.010;4.446;2022-07-03T06:45:56;4.78;;;1.90;;
46563;SDS011;32291;52.010;4.446;2022-07-03T06:46:58;5.88;;;2.33;;
46563;SDS011;32291;52.010;4.446;2022-07-03T06:48:04;7.30;;;3.13;;
46563;SDS011;32291;52.010;4.446;2022-07-03T06:49:06;3.90;;;2.30;;
46563;SDS011;32291;52.010;4.446;2022-07-03T06:50:08;6.63;;;2.50;;
46563;SDS011;32291;52.010;4.446;2022-07-03T06:51:10;7.18;;;2.42;;
46563;SDS011;32291;52.010;4.446;2022-07-03T06:52:12;4.88;;;2.05;;
46563;SDS011;32291;52.010;4.446;2022-07-03T06:53:14;6.05;;;2.30;;
46563;SDS011;32291;52.010;4.446;2022-07-03T06:54:16;7.18;;;2.45;;
46563;SDS011;32291;52.010;4.446;2022-07-03T06:55:18;6.03;;;2.17;;
46563;SDS011;32291;52.010;4.446;2022-07-03T06:56:21;8.60;;;2.38;;
46563;SDS011;32291;52.010;4.446;2022-07-03T06:57:23;6.07;;;2.50;;
46563;SDS011;32291;52.010;4.446;2022-07-03T06:58:24;4.78;;;2.35;;
46563;SDS011;32291;52.010;4.446;2022-07-03T06:59:26;6.22;;;2.90;;
46563;SDS011;32291;52.010;4.446;2022-07-03T07:00:28;6.82;;;2.50;;
46563;SDS011;32291;52.010;4.446;2022-07-03T07:01:31;4.97;;;1.98;;
46563;SDS011;32291;52.010;4.446;2022-07-03T07:02:33;6.72;;;2.05;;
46563;SDS011;32291;52.010;4.446;2022-07-03T07:03:34;3.50;;;1.73;;
46563;SDS011;32291;52.010;4.446;2022-07-03T07:04:36;4.80;;;2.40;;
46563;SDS011;32291;52.010;4.446;2022-07-03T07:05:38;6.40;;;2.20;;